sensor_id;sensor_type;location;lat;lon;timestamp;P1;durP1;ratioP1;P2;durP2;ratioP2
14992;SDS011;7592;51.088;13.732;2023-07-02T00:02:28;1.80;;;1.70;;
14992;SDS011;7592;51.088;13.732;2023-07-02T00:07:20;1.50;;;1.30;;
14992;SDS011;7592;51.088;13.732;2023-07-02T00:12:13;2.33;;;1.60;;
14992;SDS011;7592;51.088;13.732;2023-07-02T00:17:05;1.50;;;1.40;;
14992;SDS011;7592;51.088;13.732;2023-07-02T00:21:58;1.60;;;1.30;;
14992;SDS011;7592;51.088;13.732;2023-07-02T00:26:50;1.73;;;1.40;;
14992;SDS011;7592;51.088;13.732;2023-07-02T00:31:42;1.10;;;0.97;;
14992;SDS011;7592;51.088;13.732;2023-07-02T00:36:35;1.07;;;1.03;;
14992;SDS011;7592;51.088;13.732;2023-07-02T00:41:27;2.70;;;1.10;;
14992;SDS011;7592;51.088;13.732;2023-07-02T00:46:21;1.03;;;0.97;;
14992;SDS011;7592;51.088;13.732;2023-07-02T00:51:17;1.40;;;1.30;;
14992;SDS011;7592;51.088;13.732;2023-07-02T00:56:12;1.37;;;1.17;;
14992;SDS011;7592;51.088;13.732;2023-07-02T01:01:04;1.77;;;1.07;;
14992;SDS011;7592;51.088;13.732;2023-07-02T01:13:15;1.17;;;1.00;;
14992;SDS011;7592;51.088;13.732;2023-07-02T01:18:11;1.90;;;0.90;;
14992;SDS011;7592;51.088;13.732;2023-07-02T01:23:05;1.67;;;0.90;;
14992;SDS011;7592;51.088;13.732;2023-07-02T01:27:58;1.23;;;1.13;;
14992;SDS011;7592;51.088;13.732;2023-07-02T01:32:50;1.40;;;0.90;;
14992;SDS011;7592;51.088;13.732;2023-07-02T01:37:43;2.70;;;1.00;;
14992;SDS011;7592;51.088;13.732;2023-07-02T01:42:35;1.20;;;1.00;;
14992;SDS011;7592;51.088;13.732;2023-07-02T01:47:28;1.53;;;0.80;;
14992;SDS011;7592;51.088;13.732;2023-07-02T01:52:20;1.50;;;0.90;;
14992;SDS011;7592;51.088;13.732;2023-07-02T01:57:12;0.97;;;0.97;;
14992;SDS011;7592;51.088;13.732;2023-07-02T02:02:05;1.30;;;0.80;;
14992;SDS011;7592;51.088;13.732;2023-07-02T02:07:00;0.90;;;0.90;;
14992;SDS011;7592;51.088;13.732;2023-07-02T02:11:52;1.33;;;1.17;;
14992;SDS011;7592;51.088;13.732;2023-07-02T02:16:45;0.97;;;0.87;;
14992;SDS011;7592;51.088;13.732;2023-07-02T02:21:37;0.70;;;0.70;;
14992;SDS011;7592;51.088;13.732;2023-07-02T02:26:30;0.93;;;0.90;;
14992;SDS011;7592;51.088;13.732;2023-07-02T02:31:23;1.30;;;0.90;;
14992;SDS011;7592;51.088;13.732;2023-07-02T02:36:15;0.77;;;0.77;;
14992;SDS011;7592;51.088;13.732;2023-07-02T02:41:09;1.00;;;0.90;;
14992;SDS011;7592;51.088;13.732;2023-07-02T02:46:06;1.60;;;1.07;;
14992;SDS011;7592;51.088;13.732;2023-07-02T02:50:58;0.80;;;0.80;;
14992;SDS011;7592;51.088;13.732;2023-07-02T02:55:51;1.63;;;0.83;;
14992;SDS011;7592;51.088;13.732;2023-07-02T03:00:43;1.10;;;0.90;;
14992;SDS011;7592;51.088;13.732;2023-07-02T03:05:37;2.43;;;1.40;;
14992;SDS011;7592;51.088;13.732;2023-07-02T03:10:30;1.93;;;0.90;;
14992;SDS011;7592;51.088;13.732;2023-07-02T03:15:22;1.13;;;1.10;;
14992;SDS011;7592;51.088;13.732;2023-07-02T03:20:14;0.70;;;0.70;;
14992;SDS011;7592;51.088;13.732;2023-07-02T03:25:06;0.80;;;0.80;;
14992;SDS011;7592;51.088;13.732;2023-07-02T03:29:59;0.80;;;0.80;;
14992;SDS011;7592;51.088;13.732;2023-07-02T03:34:52;0.90;;;0.80;;
14992;SDS011;7592;51.088;13.732;2023-07-02T03:39:44;0.83;;;0.83;;
14992;SDS011;7592;51.088;13.732;2023-07-02T03:44:36;1.33;;;0.63;;
14992;SDS011;7592;51.088;13.732;2023-07-02T03:49:28;2.10;;;0.80;;
14992;SDS011;7592;51.088;13.732;2023-07-02T03:54:21;1.50;;;0.87;;
14992;SDS011;7592;51.088;13.732;2023-07-02T03:59:13;1.53;;;0.73;;
14992;SDS011;7592;51.088;13.732;2023-07-02T04:04:05;1.70;;;1.00;;
14992;SDS011;7592;51.088;13.732;2023-07-02T04:08:57;2.17;;;1.20;;
14992;SDS011;7592;51.088;13.732;2023-07-02T04:13:49;1.50;;;1.40;;
14992;SDS011;7592;51.088;13.732;2023-07-02T04:18:42;0.90;;;0.90;;
14992;SDS011;7592;51.088;13.732;2023-07-02T04:23:34;1.40;;;1.30;;
14992;SDS011;7592;51.088;13.732;2023-07-02T04:28:26;1.43;;;1.33;;
14992;SDS011;7592;51.088;13.732;2023-07-02T04:33:18;1.13;;;1.03;;
14992;SDS011;7592;51.088;13.732;2023-07-02T04:38:11;3.07;;;1.80;;
14992;SDS011;7592;51.088;13.732;2023-07-02T04:43:03;1.70;;;1.60;;
14992;SDS011;7592;51.088;13.732;2023-07-02T04:47:56;1.37;;;1.27;;
14992;SDS011;7592;51.088;13.732;2023-07-02T04:52:49;1.50;;;1.40;;
14992;SDS011;7592;51.088;13.732;2023-07-02T04:57:41;1.73;;;1.60;;
14992;SDS011;7592;51.088;13.732;2023-07-02T05:02:33;1.93;;;1.70;;
14992;SDS011;7592;51.088;13.732;2023-07-02T05:07:25;2.10;;;2.00;;
14992;SDS011;7592;51.088;13.732;2023-07-02T05:12:18;1.87;;;1.73;;
14992;SDS011;7592;51.088;13.732;2023-07-02T05:17:10;1.60;;;1.50;;
14992;SDS011;7592;51.088;13.732;2023-07-02T05:22:06;1.63;;;1.53;;
14992;SDS011;7592;51.088;13.732;2023-07-02T05:26:58;2.73;;;1.33;;
14992;SDS011;7592;51.088;13.732;2023-07-02T05:31:50;2.07;;;1.90;;
14992;SDS011;7592;51.088;13.732;2023-07-02T05:36:42;1.70;;;1.60;;
14992;SDS011;7592;51.088;13.732;2023-07-02T05:41:35;2.70;;;1.50;;
14992;SDS011;7592;51.088;13.732;2023-07-02T05:46:27;2.87;;;1.10;;
14992;SDS011;7592;51.088;13.732;2023-07-02T05:51:20;2.23;;;0.87;;
14992;SDS011;7592;51.088;13.732;2023-07-02T05:56:13;1.90;;;1.40;;
14992;SDS011;7592;51.088;13.732;2023-07-02T06:01:05;1.23;;;1.07;;
14992;SDS011;7592;51.088;13.732;2023-07-02T06:05:57;1.93;;;1.07;;
14992;SDS011;7592;51.088;13.732;2023-07-02T06:10:50;1.97;;;0.90;;
14992;SDS011;7592;51.088;13.732;2023-07-02T06:15:42;2.80;;;1.00;;
14992;SDS011;7592;51.088;13.732;2023-07-02T06:20:35;1.07;;;0.90;;
14992;SDS011;7592;51.088;13.732;2023-07-02T06:25:27;3.17;;;1.17;;
14992;SDS011;7592;51.088;13.732;2023-07-02T06:30:19;1.83;;;1.13;;
14992;SDS011;7592;51.088;13.732;2023-07-02T06:35:12;2.83;;;1.17;;
14992;SDS011;7592;51.088;13.732;2023-07-02T06:40:04;1.73;;;1.23;;
14992;SDS011;7592;51.088;13.732;2023-07-02T06:44:58;1.10;;;1.00;;
14992;SDS011;7592;51.088;13.732;2023-07-02T06:49:51;2.23;;;1.10;;
14992;SDS011;7592;51.088;13.732;2023-07-02T06:54:44;2.03;;;1.13;;
14992;SDS011;7592;51.088;13.732;2023-07-02T06:59:36;1.37;;;1.10;;
14992;SDS011;7592;51.088;13.732;2023-07-02T07:04:28;1.67;;;1.30;;
14992;SDS011;7592;51.088;13.732;2023-07-02T07:09:21;1.20;;;1.20;;
14992;SDS011;7592;51.088;13.732;2023-07-02T07:14:13;2.43;;;1.37;;
14992;SDS011;7592;51.088;13.732;2023-07-02T07:19:06;3.23;;;1.07;;
14992;SDS011;7592;51.088;13.732;2023-07-02T07:23:59;2.83;;;1.20;;
14992;SDS011;7592;51.088;13.732;2023-07-02T07:28:51;1.10;;;1.00;;
14992;SDS011;7592;51.088;13.732;2023-07-02T07:33:45;3.77;;;1.23;;
14992;SDS011;7592;51.088;13.732;2023-07-02T07:38:38;1.00;;;0.90;;
14992;SDS011;7592;51.088;13.732;2023-07-02T07:43:30;1.97;;;1.33;;
14992;SDS011;7592;51.088;13.732;2023-07-02T07:48:22;2.38;;;1.00;;
14992;SDS011;7592;51.088;13.732;2023-07-02T07:53:14;1.92;;;1.10;;
14992;SDS011;7592;51.088;13.732;2023-07-02T07:58:06;1.30;;;1.10;;
14992;SDS011;7592;51.088;13.732;2023-07-02T08:02:58;1.80;;;1.25;;
14992;SDS011;7592;51.088;13.732;2023-07-02T08:07:52;1.25;;;1.15;;
14992;SDS011;7592;51.088;13.732;2023-07-02T08:12:47;1.10;;;1.10;;
14992;SDS011;7592;51.088;13.732;2023-07-02T08:17:39;1.00;;;1.00;;
14992;SDS011;7592;51.088;13.732;2023-07-02T08:22:32;1.85;;;1.27;;
14992;SDS011;7592;51.088;13.732;2023-07-02T08:27:24;2.65;;;1.20;;
14992;SDS011;7592;51.088;13.732;2023-07-02T08:32:17;1.35;;;1.08;;
14992;SDS011;7592;51.088;13.732;2023-07-02T08:37:09;1.20;;;1.20;;
14992;SDS011;7592;51.088;13.732;2023-07-02T08:42:01;1.45;;;1.35;;
14992;SDS011;7592;51.088;13.732;2023-07-02T08:46:54;1.40;;;1.30;;
14992;SDS011;7592;51.088;13.732;2023-07-02T08:51:48;1.55;;;1.13;;
14992;SDS011;7592;51.088;13.732;2023-07-02T08:56:41;2.90;;;1.20;;
14992;SDS011;7592;51.088;13.732;2023-07-02T09:01:44;2.10;;;1.20;;
14992;SDS011;7592;51.088;13.732;2023-07-02T09:06:40;1.25;;;1.15;;
14992;SDS011;7592;51.088;13.732;2023-07-02T09:11:32;1.23;;;1.23;;
14992;SDS011;7592;51.088;13.732;2023-07-02T09:16:29;1.10;;;1.10;;
14992;SDS011;7592;51.088;13.732;2023-07-02T09:21:25;1.60;;;1.50;;
14992;SDS011;7592;51.088;13.732;2023-07-02T09:26:19;1.15;;;1.15;;
14992;SDS011;7592;51.088;13.732;2023-07-02T09:31:12;1.08;;;1.08;;
14992;SDS011;7592;51.088;13.732;2023-07-02T09:36:04;1.30;;;1.30;;
14992;SDS011;7592;51.088;13.732;2023-07-02T09:40:57;0.95;;;0.93;;
14992;SDS011;7592;51.088;13.732;2023-07-02T09:45:50;2.45;;;2.10;;
14992;SDS011;7592;51.088;13.732;2023-07-02T09:50:46;1.20;;;1.10;;
14992;SDS011;7592;51.088;13.732;2023-07-02T09:55:43;1.80;;;1.20;;
14992;SDS011;7592;51.088;13.732;2023-07-02T10:00:36;1.30;;;0.98;;
14992;SDS011;7592;51.088;13.732;2023-07-02T10:05:29;1.02;;;1.02;;
14992;SDS011;7592;51.088;13.732;2023-07-02T10:10:29;1.00;;;1.00;;
14992;SDS011;7592;51.088;13.732;2023-07-02T10:15:26;1.02;;;1.02;;
14992;SDS011;7592;51.088;13.732;2023-07-02T10:20:19;0.90;;;0.90;;
14992;SDS011;7592;51.088;13.732;2023-07-02T10:25:26;1.48;;;1.10;;
14992;SDS011;7592;51.088;13.732;2023-07-02T10:30:29;1.10;;;1.05;;
14992;SDS011;7592;51.088;13.732;2023-07-02T10:35:23;1.67;;;1.30;;
14992;SDS011;7592;51.088;13.732;2023-07-02T10:40:17;1.17;;;1.08;;
14992;SDS011;7592;51.088;13.732;2023-07-02T10:45:09;0.90;;;0.90;;
14992;SDS011;7592;51.088;13.732;2023-07-02T10:50:01;1.23;;;1.13;;
14992;SDS011;7592;51.088;13.732;2023-07-02T10:54:54;2.25;;;1.20;;
14992;SDS011;7592;51.088;13.732;2023-07-02T10:59:46;1.42;;;1.05;;
14992;SDS011;7592;51.088;13.732;2023-07-02T11:04:39;1.52;;;1.42;;
14992;SDS011;7592;51.088;13.732;2023-07-02T11:09:32;4.22;;;1.27;;
14992;SDS011;7592;51.088;13.732;2023-07-02T11:19:26;2.17;;;1.15;;
14992;SDS011;7592;51.088;13.732;2023-07-02T11:24:26;1.73;;;1.13;;
14992;SDS011;7592;51.088;13.732;2023-07-02T11:29:23;1.40;;;1.38;;
14992;SDS011;7592;51.088;13.732;2023-07-02T11:34:16;1.38;;;1.25;;
14992;SDS011;7592;51.088;13.732;2023-07-02T11:39:15;1.80;;;1.20;;
14992;SDS011;7592;51.088;13.732;2023-07-02T11:44:07;2.45;;;1.17;;
14992;SDS011;7592;51.088;13.732;2023-07-02T11:49:00;1.40;;;1.30;;
14992;SDS011;7592;51.088;13.732;2023-07-02T11:53:53;3.90;;;1.15;;
14992;SDS011;7592;51.088;13.732;2023-07-02T11:58:45;3.15;;;1.30;;
14992;SDS011;7592;51.088;13.732;2023-07-02T12:03:38;2.30;;;1.40;;
14992;SDS011;7592;51.088;13.732;2023-07-02T12:08:30;1.55;;;1.40;;
14992;SDS011;7592;51.088;13.732;2023-07-02T12:13:22;1.50;;;1.38;;
14992;SDS011;7592;51.088;13.732;2023-07-02T12:18:14;3.65;;;1.13;;
14992;SDS011;7592;51.088;13.732;2023-07-02T12:23:07;2.73;;;2.07;;
14992;SDS011;7592;51.088;13.732;2023-07-02T12:27:59;3.33;;;1.90;;
14992;SDS011;7592;51.088;13.732;2023-07-02T12:32:51;1.63;;;1.53;;
14992;SDS011;7592;51.088;13.732;2023-07-02T12:37:44;4.43;;;1.67;;
14992;SDS011;7592;51.088;13.732;2023-07-02T12:42:40;6.63;;;1.83;;
14992;SDS011;7592;51.088;13.732;2023-07-02T12:47:34;1.87;;;1.73;;
14992;SDS011;7592;51.088;13.732;2023-07-02T12:52:26;2.40;;;1.80;;
14992;SDS011;7592;51.088;13.732;2023-07-02T12:57:19;1.93;;;1.70;;
14992;SDS011;7592;51.088;13.732;2023-07-02T13:02:11;1.80;;;1.27;;
14992;SDS011;7592;51.088;13.732;2023-07-02T13:07:04;6.53;;;2.43;;
14992;SDS011;7592;51.088;13.732;2023-07-02T13:11:56;6.57;;;2.53;;
14992;SDS011;7592;51.088;13.732;2023-07-02T13:16:50;5.50;;;2.33;;
14992;SDS011;7592;51.088;13.732;2023-07-02T13:21:42;5.67;;;2.43;;
14992;SDS011;7592;51.088;13.732;2023-07-02T13:26:34;4.33;;;2.43;;
14992;SDS011;7592;51.088;13.732;2023-07-02T13:31:26;3.20;;;2.73;;
14992;SDS011;7592;51.088;13.732;2023-07-02T13:36:18;6.03;;;2.83;;
14992;SDS011;7592;51.088;13.732;2023-07-02T13:41:11;5.20;;;2.40;;
14992;SDS011;7592;51.088;13.732;2023-07-02T13:46:03;2.90;;;2.67;;
14992;SDS011;7592;51.088;13.732;2023-07-02T13:50:55;3.17;;;2.30;;
14992;SDS011;7592;51.088;13.732;2023-07-02T13:55:47;3.60;;;2.53;;
14992;SDS011;7592;51.088;13.732;2023-07-02T14:00:40;9.50;;;5.93;;
14992;SDS011;7592;51.088;13.732;2023-07-02T14:05:35;2.70;;;2.50;;
14992;SDS011;7592;51.088;13.732;2023-07-02T14:10:27;5.17;;;4.27;;
14992;SDS011;7592;51.088;13.732;2023-07-02T14:15:20;4.60;;;4.17;;
14992;SDS011;7592;51.088;13.732;2023-07-02T14:20:13;5.87;;;3.60;;
14992;SDS011;7592;51.088;13.732;2023-07-02T14:25:05;3.13;;;2.70;;
14992;SDS011;7592;51.088;13.732;2023-07-02T14:29:58;4.70;;;2.80;;
14992;SDS011;7592;51.088;13.732;2023-07-02T14:34:52;3.80;;;2.70;;
14992;SDS011;7592;51.088;13.732;2023-07-02T14:39:44;10.00;;;6.07;;
14992;SDS011;7592;51.088;13.732;2023-07-02T14:44:56;6.27;;;4.37;;
14992;SDS011;7592;51.088;13.732;2023-07-02T14:49:48;5.80;;;3.90;;
14992;SDS011;7592;51.088;13.732;2023-07-02T14:54:40;4.97;;;3.67;;
14992;SDS011;7592;51.088;13.732;2023-07-02T14:59:32;6.57;;;4.40;;
14992;SDS011;7592;51.088;13.732;2023-07-02T15:04:24;6.77;;;3.60;;
14992;SDS011;7592;51.088;13.732;2023-07-02T15:09:17;5.23;;;4.07;;
14992;SDS011;7592;51.088;13.732;2023-07-02T15:14:10;5.33;;;4.83;;
14992;SDS011;7592;51.088;13.732;2023-07-02T15:19:02;8.30;;;7.47;;
14992;SDS011;7592;51.088;13.732;2023-07-02T15:23:54;12.03;;;6.40;;
14992;SDS011;7592;51.088;13.732;2023-07-02T15:28:46;7.53;;;5.27;;
14992;SDS011;7592;51.088;13.732;2023-07-02T15:33:40;7.50;;;5.43;;
14992;SDS011;7592;51.088;13.732;2023-07-02T15:38:32;5.47;;;4.97;;
14992;SDS011;7592;51.088;13.732;2023-07-02T15:43:24;12.33;;;7.27;;
14992;SDS011;7592;51.088;13.732;2023-07-02T15:48:18;6.13;;;5.63;;
14992;SDS011;7592;51.088;13.732;2023-07-02T15:53:10;7.60;;;5.90;;
14992;SDS011;7592;51.088;13.732;2023-07-02T15:58:02;8.23;;;7.17;;
14992;SDS011;7592;51.088;13.732;2023-07-02T16:02:54;8.13;;;6.60;;
14992;SDS011;7592;51.088;13.732;2023-07-02T16:07:48;7.57;;;6.13;;
14992;SDS011;7592;51.088;13.732;2023-07-02T16:12:40;7.17;;;6.47;;
14992;SDS011;7592;51.088;13.732;2023-07-02T16:17:34;7.90;;;6.90;;
14992;SDS011;7592;51.088;13.732;2023-07-02T16:22:26;10.30;;;6.90;;
14992;SDS011;7592;51.088;13.732;2023-07-02T16:27:19;8.47;;;6.87;;
14992;SDS011;7592;51.088;13.732;2023-07-02T16:32:12;9.27;;;7.30;;
14992;SDS011;7592;51.088;13.732;2023-07-02T16:37:05;9.60;;;7.20;;
14992;SDS011;7592;51.088;13.732;2023-07-02T16:41:57;12.37;;;8.43;;
14992;SDS011;7592;51.088;13.732;2023-07-02T16:46:50;9.87;;;8.00;;
14992;SDS011;7592;51.088;13.732;2023-07-02T16:51:44;12.93;;;8.50;;
14992;SDS011;7592;51.088;13.732;2023-07-02T16:56:37;14.17;;;11.60;;
14992;SDS011;7592;51.088;13.732;2023-07-02T17:01:29;11.13;;;8.37;;
14992;SDS011;7592;51.088;13.732;2023-07-02T17:06:22;9.93;;;7.87;;
14992;SDS011;7592;51.088;13.732;2023-07-02T17:11:14;8.83;;;7.67;;
14992;SDS011;7592;51.088;13.732;2023-07-02T17:16:07;14.70;;;12.60;;
14992;SDS011;7592;51.088;13.732;2023-07-02T17:21:00;11.53;;;7.93;;
14992;SDS011;7592;51.088;13.732;2023-07-02T17:25:53;9.77;;;8.77;;
14992;SDS011;7592;51.088;13.732;2023-07-02T17:30:45;11.73;;;8.50;;
14992;SDS011;7592;51.088;13.732;2023-07-02T17:35:41;10.47;;;8.63;;
14992;SDS011;7592;51.088;13.732;2023-07-02T17:40:38;13.50;;;8.37;;
14992;SDS011;7592;51.088;13.732;2023-07-02T17:45:31;12.03;;;9.70;;
14992;SDS011;7592;51.088;13.732;2023-07-02T17:50:24;11.40;;;8.73;;
14992;SDS011;7592;51.088;13.732;2023-07-02T17:55:16;9.13;;;8.23;;
14992;SDS011;7592;51.088;13.732;2023-07-02T18:00:08;12.10;;;9.87;;
14992;SDS011;7592;51.088;13.732;2023-07-02T18:05:01;8.43;;;7.63;;
14992;SDS011;7592;51.088;13.732;2023-07-02T18:09:54;9.73;;;8.43;;
14992;SDS011;7592;51.088;13.732;2023-07-02T18:14:48;13.27;;;8.57;;
14992;SDS011;7592;51.088;13.732;2023-07-02T18:19:42;10.50;;;8.57;;
14992;SDS011;7592;51.088;13.732;2023-07-02T18:24:38;11.00;;;8.23;;
14992;SDS011;7592;51.088;13.732;2023-07-02T18:29:32;9.83;;;7.90;;
14992;SDS011;7592;51.088;13.732;2023-07-02T18:34:27;11.93;;;8.60;;
14992;SDS011;7592;51.088;13.732;2023-07-02T18:39:20;24.07;;;18.60;;
14992;SDS011;7592;51.088;13.732;2023-07-02T18:44:14;12.57;;;9.20;;
14992;SDS011;7592;51.088;13.732;2023-07-02T18:49:07;8.80;;;7.90;;
14992;SDS011;7592;51.088;13.732;2023-07-02T18:54:02;10.47;;;8.57;;
14992;SDS011;7592;51.088;13.732;2023-07-02T18:58:54;9.80;;;8.83;;
14992;SDS011;7592;51.088;13.732;2023-07-02T19:03:48;10.10;;;8.93;;
14992;SDS011;7592;51.088;13.732;2023-07-02T19:08:41;9.07;;;7.93;;
14992;SDS011;7592;51.088;13.732;2023-07-02T19:13:33;10.17;;;9.13;;
14992;SDS011;7592;51.088;13.732;2023-07-02T19:18:26;11.47;;;9.43;;
14992;SDS011;7592;51.088;13.732;2023-07-02T19:23:19;10.80;;;9.00;;
14992;SDS011;7592;51.088;13.732;2023-07-02T19:28:11;10.10;;;9.10;;
14992;SDS011;7592;51.088;13.732;2023-07-02T19:33:05;12.13;;;10.93;;
14992;SDS011;7592;51.088;13.732;2023-07-02T19:37:57;15.00;;;11.27;;
14992;SDS011;7592;51.088;13.732;2023-07-02T19:42:49;14.60;;;10.20;;
14992;SDS011;7592;51.088;13.732;2023-07-02T19:47:42;10.50;;;8.90;;
14992;SDS011;7592;51.088;13.732;2023-07-02T19:52:35;12.10;;;10.23;;
14992;SDS011;7592;51.088;13.732;2023-07-02T19:57:27;11.97;;;9.70;;
14992;SDS011;7592;51.088;13.732;2023-07-02T20:02:19;10.30;;;9.30;;
14992;SDS011;7592;51.088;13.732;2023-07-02T20:07:13;10.83;;;9.30;;
14992;SDS011;7592;51.088;13.732;2023-07-02T20:12:10;10.40;;;9.37;;
14992;SDS011;7592;51.088;13.732;2023-07-02T20:17:03;10.47;;;9.37;;
14992;SDS011;7592;51.088;13.732;2023-07-02T20:21:56;13.37;;;9.97;;
14992;SDS011;7592;51.088;13.732;2023-07-02T20:26:50;10.57;;;9.47;;
14992;SDS011;7592;51.088;13.732;2023-07-02T20:31:48;12.83;;;9.87;;
14992;SDS011;7592;51.088;13.732;2023-07-02T20:36:42;11.17;;;9.77;;
14992;SDS011;7592;51.088;13.732;2023-07-02T20:41:35;12.97;;;9.80;;
14992;SDS011;7592;51.088;13.732;2023-07-02T20:46:28;13.00;;;11.23;;
14992;SDS011;7592;51.088;13.732;2023-07-02T20:51:22;12.30;;;10.87;;
14992;SDS011;7592;51.088;13.732;2023-07-02T20:56:14;12.57;;;10.43;;
14992;SDS011;7592;51.088;13.732;2023-07-02T21:01:08;19.40;;;11.17;;
14992;SDS011;7592;51.088;13.732;2023-07-02T21:06:09;12.90;;;10.37;;
14992;SDS011;7592;51.088;13.732;2023-07-02T21:11:03;10.47;;;9.40;;
14992;SDS011;7592;51.088;13.732;2023-07-02T21:16:10;12.53;;;9.67;;
14992;SDS011;7592;51.088;13.732;2023-07-02T21:21:02;10.37;;;9.03;;
14992;SDS011;7592;51.088;13.732;2023-07-02T21:25:58;10.87;;;9.60;;
14992;SDS011;7592;51.088;13.732;2023-07-02T21:30:52;10.83;;;9.33;;
14992;SDS011;7592;51.088;13.732;2023-07-02T21:35:45;14.03;;;10.10;;
14992;SDS011;7592;51.088;13.732;2023-07-02T21:40:38;13.80;;;10.60;;
14992;SDS011;7592;51.088;13.732;2023-07-02T21:45:30;10.83;;;9.73;;
14992;SDS011;7592;51.088;13.732;2023-07-02T21:50:22;12.90;;;9.70;;
14992;SDS011;7592;51.088;13.732;2023-07-02T21:55:14;11.60;;;9.90;;
14992;SDS011;7592;51.088;13.732;2023-07-02T22:00:06;12.17;;;10.47;;
14992;SDS011;7592;51.088;13.732;2023-07-02T22:05:08;14.60;;;9.97;;
14992;SDS011;7592;51.088;13.732;2023-07-02T22:10:01;13.60;;;10.10;;
14992;SDS011;7592;51.088;13.732;2023-07-02T22:14:53;11.60;;;10.40;;
14992;SDS011;7592;51.088;13.732;2023-07-02T22:19:47;14.73;;;10.87;;
14992;SDS011;7592;51.088;13.732;2023-07-02T22:24:40;10.70;;;9.70;;
14992;SDS011;7592;51.088;13.732;2023-07-02T22:29:32;12.67;;;10.70;;
14992;SDS011;7592;51.088;13.732;2023-07-02T22:34:24;13.63;;;10.87;;
14992;SDS011;7592;51.088;13.732;2023-07-02T22:39:16;13.60;;;10.33;;
14992;SDS011;7592;51.088;13.732;2023-07-02T22:44:09;11.80;;;10.60;;
14992;SDS011;7592;51.088;13.732;2023-07-02T22:49:01;14.27;;;11.07;;
14992;SDS011;7592;51.088;13.732;2023-07-02T22:53:56;14.83;;;11.23;;
14992;SDS011;7592;51.088;13.732;2023-07-02T22:58:48;15.27;;;10.80;;
14992;SDS011;7592;51.088;13.732;2023-07-02T23:03:41;15.83;;;11.77;;
14992;SDS011;7592;51.088;13.732;2023-07-02T23:08:33;13.00;;;10.53;;
14992;SDS011;7592;51.088;13.732;2023-07-02T23:13:25;10.73;;;9.40;;
14992;SDS011;7592;51.088;13.732;2023-07-02T23:18:18;14.03;;;10.23;;
14992;SDS011;7592;51.088;13.732;2023-07-02T23:23:10;11.87;;;10.23;;
14992;SDS011;7592;51.088;13.732;2023-07-02T23:28:04;13.77;;;11.13;;
14992;SDS011;7592;51.088;13.732;2023-07-02T23:32:58;14.17;;;10.40;;
14992;SDS011;7592;51.088;13.732;2023-07-02T23:37:50;15.47;;;11.27;;
14992;SDS011;7592;51.088;13.732;2023-07-02T23:42:48;11.80;;;10.60;;
14992;SDS011;7592;51.088;13.732;2023-07-02T23:47:41;11.03;;;9.87;;
14992;SDS011;7592;51.088;13.732;2023-07-02T23:52:34;12.57;;;10.60;;
14992;SDS011;7592;51.088;13.732;2023-07-02T23:57:29;11.33;;;10.13;;
